Aviation Digital Data Service (ADDS)

Output produced by TAFs form (1708 UTC 26 April 2015)
found at http://aviationweather.gov/adds/tafs/
 
KPUB 261556Z 2616/2712 08014G24KT P6SM VCSH SCT005 OVC010 
     TEMPO 2616/2620 3SM -SHRA BR BKN005 
     FM262000 08012KT 5SM -SHRA BR VCTS BKN018CB OVC040 
     FM270000 05015KT 4SM -SHRA BR BKN012 OVC025